createdAt,value
2023-03-24T00:00:09.141Z,99614.66
2023-03-24T00:05:11.843Z,99611.91
2023-03-24T00:10:15.849Z,99610.16
2023-03-24T00:15:21.408Z,99598.69
2023-03-24T00:20:23.589Z,99594.31
2023-03-24T00:25:36.027Z,99582.88
2023-03-24T00:30:37.809Z,99577.66
2023-03-24T00:35:39.704Z,99576.69
2023-03-24T00:40:46.369Z,99571.25
2023-03-24T00:45:48.241Z,99562.47
2023-03-24T00:50:50.823Z,99552.81
2023-03-24T00:55:54.309Z,99537.00
2023-03-24T01:00:57.355Z,99542.09
2023-03-24T01:06:02.362Z,99530.66
2023-03-24T01:11:06.885Z,99526.19
2023-03-24T01:16:09.493Z,99508.75
2023-03-24T01:21:11.826Z,99507.09
2023-03-24T01:26:15.396Z,99496.56
2023-03-24T01:31:17.156Z,99482.63
2023-03-24T01:36:18.970Z,99482.53
2023-03-24T01:41:22.089Z,99469.66
2023-03-24T01:46:23.864Z,99460.13
2023-03-24T01:51:27.210Z,99453.19
2023-03-24T01:56:32.492Z,99435.81
2023-03-24T02:01:34.290Z,99426.22
2023-03-24T02:06:48.981Z,99421.84
2023-03-24T02:11:51.997Z,99408.72
2023-03-24T02:17:01.976Z,99393.88
2023-03-24T02:22:36.774Z,99392.13
2023-03-24T02:28:04.613Z,99386.81
2023-03-24T02:33:36.606Z,99369.44
2023-03-24T02:38:57.391Z,99366.81
2023-03-24T02:44:03.121Z,99357.13
2023-03-24T02:49:10.102Z,99349.06
2023-03-24T02:54:13.306Z,99342.84
2023-03-24T02:59:18.641Z,99324.47
2023-03-24T03:04:25.981Z,99328.88
2023-03-24T03:09:29.307Z,99319.13
2023-03-24T03:14:34.092Z,99313.72
2023-03-24T03:19:38.681Z,99304.16
2023-03-24T03:24:41.355Z,99307.53
2023-03-24T03:29:46.138Z,99299.56
2023-03-24T03:34:51.195Z,99282.97
2023-03-24T03:39:57.459Z,99284.75
2023-03-24T03:45:00.765Z,99276.53
2023-03-24T03:50:02.685Z,99274.25
2023-03-24T03:55:06.847Z,99275.09
2023-03-24T04:00:15.647Z,99264.25
2023-03-24T04:05:29.212Z,99265.19
2023-03-24T04:11:23.270Z,99243.56
2023-03-24T04:16:59.800Z,99239.22
2023-03-24T04:22:17.237Z,99226.97
2023-03-24T04:27:27.035Z,99221.63
2023-03-24T04:32:32.409Z,99220.84
2023-03-24T04:37:37.839Z,99223.41
2023-03-24T04:42:47.542Z,99207.66
2023-03-24T04:47:53.708Z,99197.13
2023-03-24T04:53:07.400Z,99192.69
2023-03-24T04:58:09.334Z,99180.34
2023-03-24T05:03:15.492Z,99178.75
2023-03-24T05:08:17.612Z,99177.97
2023-03-24T05:13:19.841Z,99163.13
2023-03-24T05:18:26.870Z,99158.59
2023-03-24T05:23:28.951Z,99156.72
2023-03-24T05:28:32.052Z,99152.19
2023-03-24T05:33:35.619Z,99146.84
2023-03-24T05:38:37.862Z,99141.44
2023-03-24T05:43:39.913Z,99134.31
2023-03-24T05:48:49.138Z,99130.63
2023-03-24T05:53:52.594Z,99113.97
2023-03-24T05:58:59.010Z,99113.97
2023-03-24T06:04:20.783Z,99111.16
2023-03-24T06:09:24.513Z,99117.06
2023-03-24T06:14:26.616Z,99103.56
2023-03-24T06:19:40.651Z,99112.09
2023-03-24T06:25:09.773Z,99112.16
2023-03-24T06:30:15.616Z,99111.25
2023-03-24T06:35:18.941Z,99127.63
2023-03-24T06:40:29.024Z,99136.31
2023-03-24T06:45:34.117Z,99140.44
2023-03-24T06:50:39.373Z,99143.06
2023-03-24T06:55:44.906Z,99147.41
2023-03-24T07:00:48.291Z,99140.50
2023-03-24T07:06:11.774Z,99164.44
2023-03-24T07:11:14.567Z,99145.22
2023-03-24T07:16:24.570Z,99166.44
2023-03-24T07:21:38.503Z,99184.94
2023-03-24T07:26:40.952Z,99205.72
2023-03-24T07:32:03.857Z,99214.06
2023-03-24T07:37:07.091Z,99225.44
2023-03-24T07:42:10.427Z,99206.44
2023-03-24T07:47:45.649Z,99218.50
2023-03-24T07:52:49.993Z,99232.22
2023-03-24T07:57:54.811Z,99244.53
2023-03-24T08:03:00.045Z,99255.75
2023-03-24T08:08:41.097Z,99279.44
2023-03-24T08:13:42.852Z,99287.41
2023-03-24T08:18:44.598Z,99293.25
2023-03-24T08:23:47.636Z,99289.16
2023-03-24T08:28:49.609Z,99299.75
2023-03-24T08:33:51.392Z,99306.03
2023-03-24T08:38:55.470Z,99309.88
2023-03-24T08:43:57.189Z,99315.88
2023-03-24T08:48:59.266Z,99313.03
2023-03-24T08:54:03.868Z,99323.47
2023-03-24T08:59:06.639Z,99330.47
2023-03-24T09:04:08.373Z,99304.16
2023-03-24T09:09:11.396Z,99310.91
2023-03-24T09:14:13.105Z,99320.81
2023-03-24T09:19:14.767Z,99339.59
2023-03-24T09:24:17.851Z,99359.47
2023-03-24T09:29:19.527Z,99356.53
2023-03-24T09:34:21.490Z,99362.00
2023-03-24T09:39:24.999Z,99367.06
2023-03-24T09:44:28.165Z,99353.97
2023-03-24T09:49:32.549Z,99366.06
2023-03-24T09:54:39.809Z,99366.38
2023-03-24T09:59:41.528Z,99361.94
2023-03-24T10:04:43.258Z,99391.47
2023-03-24T10:09:47.463Z,99387.81
2023-03-24T10:15:05.607Z,99383.22
2023-03-24T10:20:15.732Z,99395.09
2023-03-24T10:25:21.869Z,99414.00
2023-03-24T10:30:24.201Z,99403.09
2023-03-24T10:35:28.065Z,99424.72
2023-03-24T10:40:33.231Z,99417.50
2023-03-24T10:45:36.685Z,99411.13
2023-03-24T10:50:42.115Z,99421.59
2023-03-24T10:55:45.544Z,99411.34
2023-03-24T11:00:47.649Z,99442.81
2023-03-24T11:05:49.585Z,99455.47
2023-03-24T11:10:52.852Z,99469.25
2023-03-24T11:15:56.661Z,99485.38
2023-03-24T11:21:00.854Z,99480.00
2023-03-24T11:26:07.457Z,99478.13
2023-03-24T11:31:10.229Z,99481.28
2023-03-24T11:36:45.366Z,99481.53
2023-03-24T11:41:59.434Z,99457.34
2023-03-24T11:47:04.526Z,99465.13
2023-03-24T11:52:06.676Z,99466.00
2023-03-24T11:57:12.334Z,99457.56
2023-03-24T12:02:19.794Z,99447.19
2023-03-24T12:07:44.163Z,99448.66
2023-03-24T12:12:51.553Z,99447.00
2023-03-24T12:17:56.999Z,99458.84
2023-03-24T12:22:59.922Z,99452.03
2023-03-24T12:28:13.389Z,99455.13
2023-03-24T12:33:28.852Z,99463.06
2023-03-24T12:38:36.949Z,99467.78
2023-03-24T12:43:45.372Z,99475.91
2023-03-24T12:48:54.597Z,99477.56
2023-03-24T12:54:05.206Z,99480.25
2023-03-24T12:59:10.463Z,99489.69
2023-03-24T13:04:14.446Z,99501.38
2023-03-24T13:09:21.040Z,99497.25
2023-03-24T13:14:27.483Z,99496.00
2023-03-24T13:19:29.176Z,99491.84
2023-03-24T13:24:31.711Z,99492.56
2023-03-24T13:30:11.146Z,99478.56
2023-03-24T13:35:18.140Z,99470.75
2023-03-24T13:40:21.526Z,99465.41
2023-03-24T13:45:26.029Z,99450.00
2023-03-24T13:50:29.064Z,99453.25
2023-03-24T13:55:30.758Z,99453.06
2023-03-24T14:00:32.653Z,99459.78
2023-03-24T14:05:55.820Z,99456.25
2023-03-24T14:10:57.547Z,99479.38
2023-03-24T14:15:59.305Z,99478.06
2023-03-24T14:21:03.702Z,99478.53
2023-03-24T14:26:06.120Z,99485.91
2023-03-24T14:31:13.239Z,99482.56
2023-03-24T14:36:30.469Z,99497.28
2023-03-24T14:41:34.214Z,99503.75
2023-03-24T14:46:38.363Z,99513.13
2023-03-24T14:51:43.236Z,99519.47
2023-03-24T14:56:47.020Z,99523.03
2023-03-24T15:01:48.808Z,99513.97
2023-03-24T15:06:51.935Z,99501.31
2023-03-24T15:11:53.655Z,99490.00
2023-03-24T15:16:57.046Z,99489.41
2023-03-24T15:22:01.506Z,99493.56
2023-03-24T15:27:17.333Z,99486.97
2023-03-24T15:32:20.052Z,99497.34
2023-03-24T15:37:23.911Z,99483.00
2023-03-24T15:42:25.600Z,99489.13
2023-03-24T15:47:28.790Z,99500.53
2023-03-24T15:52:34.845Z,99517.13
2023-03-24T15:57:38.359Z,99551.34
2023-03-24T16:02:42.349Z,99554.03
2023-03-24T16:07:45.629Z,99567.16
2023-03-24T16:12:47.314Z,99525.41
2023-03-24T16:17:49.080Z,99503.16
2023-03-24T16:22:52.062Z,99496.78
2023-03-24T16:27:53.747Z,99496.38
2023-03-24T16:32:55.622Z,99499.16
2023-03-24T16:37:58.689Z,99515.03
2023-03-24T16:43:02.115Z,99532.53
2023-03-24T16:48:04.140Z,99536.41
2023-03-24T16:53:08.774Z,99542.22
2023-03-24T16:58:10.754Z,99535.72
2023-03-24T17:03:13.968Z,99545.69
2023-03-24T17:08:18.612Z,99542.22
2023-03-24T17:13:21.118Z,99569.59
2023-03-24T17:18:22.835Z,99593.28
2023-03-24T17:23:26.518Z,99641.53
2023-03-24T17:28:28.377Z,99661.31
2023-03-24T17:33:30.307Z,99666.94
2023-03-24T17:38:33.347Z,99656.06
2023-03-24T17:43:35.363Z,99628.22
2023-03-24T17:48:37.193Z,99614.25
2023-03-24T17:53:40.325Z,99628.28
2023-03-24T17:58:47.052Z,99623.09
2023-03-24T18:03:49.683Z,99613.41
2023-03-24T18:08:53.631Z,99621.28
2023-03-24T18:13:55.779Z,99622.09
2023-03-24T18:18:57.990Z,99616.84
2023-03-24T18:24:01.066Z,99603.88
2023-03-24T18:29:03.474Z,99611.81
2023-03-24T18:34:05.784Z,99618.84
2023-03-24T18:39:09.447Z,99615.47
2023-03-24T18:44:12.384Z,99619.97
2023-03-24T18:49:14.526Z,99617.56
2023-03-24T18:54:17.738Z,99616.72
2023-03-24T18:59:19.577Z,99620.22
2023-03-24T19:04:21.320Z,99626.47
2023-03-24T19:09:24.551Z,99620.41
2023-03-24T19:14:26.546Z,99628.25
2023-03-24T19:19:31.255Z,99623.97
2023-03-24T19:24:34.346Z,99622.25
2023-03-24T19:29:36.127Z,99621.34
2023-03-24T19:34:38.748Z,99617.06
2023-03-24T19:39:41.819Z,99616.19
2023-03-24T19:44:43.462Z,99618.78
2023-03-24T19:49:45.156Z,99615.28
2023-03-24T19:54:48.468Z,99617.94
2023-03-24T19:59:50.202Z,99617.09
2023-03-24T20:04:54.937Z,99608.44
2023-03-24T20:09:58.109Z,99613.59
2023-03-24T20:14:59.921Z,99609.28
2023-03-24T20:20:01.652Z,99601.59
2023-03-24T20:25:05.287Z,99580.78
2023-03-24T20:30:08.404Z,99580.81
2023-03-24T20:35:10.811Z,99579.13
2023-03-24T20:40:13.927Z,99567.81
2023-03-24T20:45:15.912Z,99575.66
2023-03-24T20:50:17.797Z,99573.97
2023-03-24T20:55:21.550Z,99563.50
2023-03-24T21:00:24.122Z,99566.09
2023-03-24T21:05:25.999Z,99564.38
2023-03-24T21:10:29.100Z,99559.19
2023-03-24T21:15:31.665Z,99569.59
2023-03-24T21:20:33.591Z,99565.31
2023-03-24T21:25:37.408Z,99562.69
2023-03-24T21:30:39.138Z,99548.78
2023-03-24T21:35:41.196Z,99549.66
2023-03-24T21:40:44.320Z,99546.22
2023-03-24T21:45:46.259Z,99542.66
2023-03-24T21:50:49.240Z,99534.78
2023-03-24T21:55:52.740Z,99539.16
2023-03-24T22:00:54.848Z,99534.00
2023-03-24T22:05:56.731Z,99534.94
2023-03-24T22:11:00.647Z,99533.22
2023-03-24T22:16:03.389Z,99541.06
2023-03-24T22:21:06.944Z,99537.63
2023-03-24T22:26:11.382Z,99532.50
2023-03-24T22:31:13.914Z,99535.09
2023-03-24T22:36:15.849Z,99541.16
2023-03-24T22:41:18.909Z,99533.31
2023-03-24T22:46:22.208Z,99529.03
2023-03-24T22:51:23.920Z,99534.28
2023-03-24T22:56:26.957Z,99540.34
2023-03-24T23:01:28.652Z,99534.25
2023-03-24T23:06:31.002Z,99526.50
2023-03-24T23:11:34.050Z,99525.66
2023-03-24T23:16:37.664Z,99508.28
2023-03-24T23:21:39.594Z,99513.47
2023-03-24T23:26:42.637Z,99517.78
2023-03-24T23:31:44.348Z,99527.28
2023-03-24T23:36:49.839Z,99518.59
2023-03-24T23:41:52.898Z,99511.59
2023-03-24T23:46:54.558Z,99518.50
2023-03-24T23:51:56.379Z,99520.19
2023-03-24T23:56:59.521Z,99511.44
